Weather reports worldwide

Advertisment
Apt, France (7657): temperature & dewpoint: 08.07.2020 11:00:00 - 14.07.2020 11:00:00 (CEST)Apt, France (7657): wind speed & gusts: 08.07.2020 11:00:00 - 14.07.2020 11:00:00 (CEST)Apt, France (7657): wind direction: 08.07.2020 11:00:00 - 14.07.2020 11:00:00 (CEST)Apt, France (7657): precipitation: 08.07.2020 11:00:00 - 14.07.2020 11:00:00 (CEST)
Date & Time tt [°C] td [°C] ff [km/h] ff [kn] fx [km/h] fx [kn] dd rr [mm]
14.07.2020 11:00:00 - - - - - - - -
14.07.2020 10:00:00 22,4 6,6 3 1 16 9 SSW 0,0
14.07.2020 09:00:00 20,3 7,3 6 3 12 7 NNW 0,0
14.07.2020 08:00:00 15,3 7,6 2 1 5 3 SW 0,0
14.07.2020 07:00:00 7,9 4,8 3 1 8 4 ESE 0,0
14.07.2020 06:00:00 6,8 3,9 6 4 10 6 SW 0,0
14.07.2020 05:00:00 6,3 3,6 3 2 6 4 W 0,0
14.07.2020 04:00:00 6,4 3,9 0 0 10 5 N 0,0
14.07.2020 03:00:00 8,7 4,1 3 2 9 5 W 0,0
14.07.2020 02:00:00 9,7 4,5 3 1 13 7 NW 0,0
14.07.2020 01:00:00 11,4 4,6 6 4 10 6 WNW 0,0
14.07.2020 00:00:00 12,5 5,6 0 0 14 7 N 0,0
13.07.2020 23:00:00 15,4 5,9 11 6 23 13 W 0,0
13.07.2020 22:00:00 18,9 8,5 9 5 18 10 W 0,0
13.07.2020 21:00:00 21,7 5,1 12 6 30 16 WNW 0,0
13.07.2020 20:00:00 24,7 5,5 15 8 44 24 NW 0,0
13.07.2020 19:00:00 25,4 6,1 21 11 43 23 WNW 0,0
13.07.2020 18:00:00 26,8 1,2 18 10 42 23 WNW 0,0
13.07.2020 17:00:00 26,4 5,3 19 10 37 20 W 0,0
13.07.2020 16:00:00 26,4 7,9 18 10 39 21 W 0,0
13.07.2020 15:00:00 26,3 9,6 19 10 39 21 WSW 0,0
13.07.2020 14:00:00 26,4 11,7 18 10 35 19 SW 0,0
13.07.2020 13:00:00 25,4 12,6 18 10 - - SW 0,0
13.07.2020 12:00:00 23,1 13,3 - - - - - 0,0
13.07.2020 11:00:00 23,9 13,1 - - - - - 0,0
13.07.2020 10:00:00 23,1 13,3 - - - - - 0,0
13.07.2020 09:00:00 18,2 12,2 2 1 5 3 ENE 0,0
13.07.2020 08:00:00 14,5 12,5 0 0 6 3 N 0,0
13.07.2020 07:00:00 11,7 10,8 0 0 5 3 N 0,0
13.07.2020 06:00:00 9,4 8,6 0 0 8 4 N 0,0
13.07.2020 05:00:00 9,4 8,3 0 0 6 3 N 0,0
13.07.2020 04:00:00 10,1 9,0 2 1 6 4 W 0,0
13.07.2020 03:00:00 10,8 9,7 4 2 7 4 SSW 0,0
13.07.2020 02:00:00 12,4 10,6 4 2 8 4 WSW 0,0
13.07.2020 01:00:00 12,9 9,9 2 1 13 7 S 0,0
13.07.2020 00:00:00 14,2 10,0 4 2 13 7 ENE 0,0
12.07.2020 23:00:00 15,1 9,9 7 4 10 5 W 0,0
12.07.2020 22:00:00 18,1 10,0 6 4 16 8 W 0,0
12.07.2020 21:00:00 21,4 9,0 8 4 22 12 WSW 0,0
12.07.2020 20:00:00 24,6 10,5 14 7 26 14 W 0,0
12.07.2020 19:00:00 25,4 12,3 16 9 34 18 W 0,0
12.07.2020 18:00:00 26,6 13,3 17 9 33 18 W 0,0
12.07.2020 17:00:00 26,7 13,1 16 8 36 19 W 0,0
12.07.2020 16:00:00 26,6 13,3 17 9 40 22 W 0,0
12.07.2020 15:00:00 26,7 13,8 19 11 40 21 SW 0,0
12.07.2020 14:00:00 26,1 12,9 9 5 30 16 S 0,0
12.07.2020 13:00:00 25,3 13,5 9 5 30 16 S 0,0
12.07.2020 12:00:00 25,5 14,0 5 3 22 12 NW 0,0
12.07.2020 11:00:00 24,3 12,9 8 5 29 16 SW 0,0
12.07.2020 10:00:00 23,9 14,0 10 6 18 10 WSW 0,0
12.07.2020 09:00:00 22,0 13,9 5 3 11 6 N 0,0
12.07.2020 08:00:00 17,3 10,7 2 1 6 4 NE 0,0
12.07.2020 07:00:00 10,4 8,2 0 0 4 2 N 0,0
12.07.2020 06:00:00 7,3 6,1 2 1 6 4 N 0,0
12.07.2020 05:00:00 7,9 6,5 2 1 6 3 N 0,0
12.07.2020 04:00:00 9,3 6,6 0 0 9 5 N 0,0
12.07.2020 03:00:00 12,1 8,2 6 3 18 10 W 0,0
12.07.2020 02:00:00 13,4 8,7 13 7 21 11 W 0,0
12.07.2020 01:00:00 14,6 9,0 14 7 24 13 WNW 0,0
12.07.2020 00:00:00 16,5 9,4 16 9 27 15 NW 0,0
11.07.2020 23:00:00 17,1 9,8 15 8 32 17 NW 0,0
11.07.2020 22:00:00 18,5 10,1 15 8 - - NW 0,0
11.07.2020 21:00:00 20,3 10,4 21 11 38 20 NW 0,0
11.07.2020 20:00:00 22,9 11,0 21 12 41 22 NNW 0,0
11.07.2020 19:00:00 24,7 10,6 24 13 42 23 NNW 0,0
11.07.2020 18:00:00 26,0 10,6 25 14 41 22 NNW 0,0
11.07.2020 17:00:00 26,9 12,2 25 14 45 24 NNW 0,0
11.07.2020 16:00:00 27,3 12,5 24 13 46 25 NNW 0,0
11.07.2020 15:00:00 26,7 14,1 21 11 39 21 NNW 0,0
11.07.2020 14:00:00 27,0 14,4 16 9 35 19 NNW 0,0
11.07.2020 13:00:00 26,2 14,3 13 7 35 19 N 0,0
11.07.2020 12:00:00 25,6 13,8 19 10 39 21 NNW 0,0
11.07.2020 11:00:00 24,6 14,1 22 12 35 19 NNW 0,0
11.07.2020 10:00:00 23,2 13,4 19 10 33 18 NNW 0,0
11.07.2020 09:00:00 21,0 13,4 14 8 23 12 NW 0,0
11.07.2020 08:00:00 20,1 12,8 10 5 18 10 WNW 0,0
11.07.2020 07:00:00 18,2 12,9 10 6 21 12 NW 0,0
11.07.2020 06:00:00 17,4 12,7 11 6 23 12 WNW 0,0
11.07.2020 05:00:00 17,0 12,9 9 5 17 9 WNW 0,0
11.07.2020 04:00:00 17,1 13,6 6 3 11 6 WNW 0,0
11.07.2020 03:00:00 19,5 14,3 6 3 13 7 W 0,0
11.07.2020 02:00:00 19,3 14,8 9 5 13 7 NW 0,0
11.07.2020 01:00:00 19,7 14,9 6 4 14 8 WSW 0,0
11.07.2020 00:00:00 19,1 15,0 4 2 10 6 W 0,0
10.07.2020 23:00:00 19,3 13,7 3 1 12 7 W 0,0
10.07.2020 22:00:00 20,6 13,8 10 5 23 13 WNW 0,0
10.07.2020 21:00:00 21,9 14,0 11 6 33 18 WNW 0,0
10.07.2020 20:00:00 24,0 14,7 16 9 41 22 WSW 0,0
10.07.2020 19:00:00 27,2 16,2 23 12 37 20 WSW 0,0
10.07.2020 18:00:00 29,5 12,0 21 12 39 21 WSW 0,0
10.07.2020 17:00:00 30,6 10,0 18 10 32 17 W 0,0
10.07.2020 16:00:00 30,9 10,8 12 6 35 19 NW 0,0
10.07.2020 15:00:00 30,4 12,8 10 5 29 16 WSW 0,0
10.07.2020 14:00:00 29,6 12,1 11 6 29 15 W 0,0
10.07.2020 13:00:00 28,0 11,1 7 4 23 12 SW 0,0
10.07.2020 12:00:00 27,5 11,9 7 4 18 10 SSE 0,0
10.07.2020 11:00:00 25,9 12,0 8 5 20 11 ESE 0,0
10.07.2020 10:00:00 25,4 11,6 7 4 14 8 ESE 0,0
10.07.2020 09:00:00 23,5 11,5 3 1 8 5 ENE 0,0
10.07.2020 08:00:00 20,0 11,5 2 1 10 5 NNE 0,0
10.07.2020 07:00:00 12,3 9,8 3 2 8 4 NW 0,0
10.07.2020 06:00:00 10,6 8,5 0 0 6 3 N 0,0
10.07.2020 05:00:00 11,0 9,3 2 1 5 3 N 0,0
10.07.2020 04:00:00 11,2 8,2 0 0 5 3 N 0,0
10.07.2020 03:00:00 11,8 8,5 2 1 4 2 NNW 0,0
10.07.2020 02:00:00 13,0 8,7 3 1 6 3 NW 0,0
10.07.2020 01:00:00 14,1 9,3 3 2 7 4 NW 0,0
10.07.2020 00:00:00 15,1 9,0 2 1 11 6 N 0,0
09.07.2020 23:00:00 16,5 9,2 2 1 13 7 NNE 0,0
09.07.2020 22:00:00 21,2 10,4 9 5 25 14 W 0,0
09.07.2020 21:00:00 22,8 12,7 6 3 21 11 W 0,0
09.07.2020 20:00:00 26,5 12,5 13 7 30 16 W 0,0
09.07.2020 19:00:00 28,3 11,4 17 9 29 16 W 0,0
09.07.2020 18:00:00 29,7 8,7 16 9 30 16 WSW 0,0
09.07.2020 17:00:00 29,9 10,4 16 8 29 16 W 0,0
09.07.2020 16:00:00 29,7 10,3 19 10 39 21 WSW 0,0
09.07.2020 15:00:00 29,6 10,7 20 11 41 22 SW 0,0
09.07.2020 14:00:00 29,1 11,6 7 4 29 16 N 0,0
09.07.2020 13:00:00 27,6 11,6 14 7 25 14 ESE 0,0
09.07.2020 12:00:00 26,7 12,0 16 9 29 15 ESE 0,0
09.07.2020 11:00:00 26,1 11,8 14 8 26 14 ESE 0,0
09.07.2020 10:00:00 26,0 9,8 4 2 13 7 N 0,0
09.07.2020 09:00:00 24,0 11,0 4 2 8 4 NNE 0,0
09.07.2020 08:00:00 18,0 11,1 0 0 5 3 N 0,0
09.07.2020 07:00:00 11,2 7,9 0 0 7 4 N 0,0
09.07.2020 06:00:00 7,6 6,4 2 1 5 3 W 0,0
09.07.2020 05:00:00 8,6 5,9 2 1 7 4 W 0,0
09.07.2020 04:00:00 9,5 7,3 0 0 8 5 N 0,0
09.07.2020 03:00:00 10,6 7,3 2 1 10 6 SE 0,0
09.07.2020 02:00:00 12,3 8,4 3 2 7 4 N 0,0
09.07.2020 01:00:00 13,5 8,8 4 2 12 7 NE 0,0
09.07.2020 00:00:00 17,2 9,4 6 4 24 13 NNW 0,0
08.07.2020 23:00:00 19,0 10,0 10 5 29 15 W 0,0
08.07.2020 22:00:00 19,6 6,7 10 5 18 10 W 0,0
08.07.2020 21:00:00 22,6 5,1 9 5 28 15 W 0,0
08.07.2020 20:00:00 25,1 8,6 16 8 32 17 W 0,0
08.07.2020 19:00:00 26,2 9,5 18 10 31 17 W 0,0
08.07.2020 18:00:00 27,0 10,7 16 9 37 20 W 0,0
08.07.2020 17:00:00 27,6 11,2 13 7 36 19 SW 0,0
08.07.2020 16:00:00 27,9 11,0 16 9 35 19 SW 0,0
08.07.2020 15:00:00 27,4 10,1 9 5 26 14 SSE 0,0
08.07.2020 14:00:00 25,9 9,7 13 7 27 15 E 0,0
08.07.2020 13:00:00 25,3 10,0 10 5 24 13 E 0,0
08.07.2020 12:00:00 23,9 9,8 8 4 23 12 SE 0,0
08.07.2020 11:00:00 23,0 10,4 10 6 28 15 SSE 0,0

tt = temperature
td = dewpoint
ff = wind speed
fx = gusts
dd = wind direction
rr = precipitation

Next stations